Airfield :
LOGIN :

Register | Disclaimer

   EN    FR    IT 

 










Legend :    VFR   Marginal VFR   IFR   Intensive IFR   Very Intensive IFR
Visi :
Ceiling :
>= 8 km
>= 3000ft
5 to 8 km
1000 to 3000 ft
1500m to 5 km
500 to 1000 ft
800 to 1500m
200 to 500 ft
< 800m
< 200 ft
Symbols :   Thunderstorms  Fog  Heavy snow  Heavy precipitations  Wind > 20 kt
SIGMETs :     Misc.  Thunderstorms  Icing  Turbulence  Mountain Waves  Volcanic Ashes






- Airport Elevation : 354 ft
- IATA code : OER


ESNO - Örnsköldsvik

CURRENT METAR :
  • 251050Z AUTO 12008KT 9999 -DZ BKN006/// OVC009/// 03/03 Q1003

EXPIRED METARs :
  • 251020Z AUTO 10005KT 6000 -RA BKN008/// OVC011/// 02/02 Q1004
  • 250950Z AUTO 08005KT 6000 -RA OVC011/// 01/01 Q1004
  • 250920Z AUTO 08004KT 4600 -RA SCT005/// BKN008/// OVC010/// 00/00 Q1004 REDZ
  • 250850Z AUTO 08004KT 030V110 9999 -FZDZ FEW009/// BKN012/// OVC016/// M00/M00 Q1004 REFZUP
  • 250820Z AUTO 07005KT 9000 FZUP FEW005/// SCT010/// OVC013/// M00/M00 Q1004 RESHUP

Expired Forecast.



MET'MAP, your aeronautical weather chart ! - Copyright ORBIFLY December 2007 - Disclaimer

ORBIFLY MET'MAP TEAM :

Programming & Development : Alexandra Zaïnal
Concept & original design : Baudouin d'Aumeries
Assistance for programming : Marc-Olivier Méhu
Technical & hardware support : Manuel Goepfert

Contact : metmap@orbifly.com




SOURCES & CREDITS :

   NOAA